sensor_id;sensor_type;location;lat;lon;timestamp;pressure;altitude;pressure_sealevel;temperature;humidity
29839;BME280;18669;53.356;-1.464;2023-09-19T00:00:40;99298.28;;;11.88;100.00
29839;BME280;18669;53.356;-1.464;2023-09-19T00:03:26;99301.56;;;11.93;100.00
29839;BME280;18669;53.356;-1.464;2023-09-19T00:06:12;99303.94;;;11.98;100.00
29839;BME280;18669;53.356;-1.464;2023-09-19T00:09:00;99308.03;;;12.05;100.00
29839;BME280;18669;53.356;-1.464;2023-09-19T00:11:45;99300.97;;;12.05;100.00
29839;BME280;18669;53.356;-1.464;2023-09-19T00:14:32;99296.34;;;12.11;100.00
29839;BME280;18669;53.356;-1.464;2023-09-19T00:17:25;99285.78;;;12.11;100.00
29839;BME280;18669;53.356;-1.464;2023-09-19T00:20:11;99288.06;;;12.18;100.00
29839;BME280;18669;53.356;-1.464;2023-09-19T00:22:57;99280.38;;;12.14;100.00
29839;BME280;18669;53.356;-1.464;2023-09-19T00:25:47;99274.13;;;12.16;100.00
29839;BME280;18669;53.356;-1.464;2023-09-19T00:28:32;99270.75;;;12.13;100.00
29839;BME280;18669;53.356;-1.464;2023-09-19T00:31:17;99256.34;;;12.20;100.00
29839;BME280;18669;53.356;-1.464;2023-09-19T00:34:02;99248.44;;;12.20;100.00
29839;BME280;18669;53.356;-1.464;2023-09-19T00:36:54;99237.75;;;12.23;100.00
29839;BME280;18669;53.356;-1.464;2023-09-19T00:39:39;99233.25;;;12.25;100.00
29839;BME280;18669;53.356;-1.464;2023-09-19T00:42:25;99234.03;;;12.27;100.00
29839;BME280;18669;53.356;-1.464;2023-09-19T00:45:11;99242.31;;;12.37;100.00
29839;BME280;18669;53.356;-1.464;2023-09-19T00:47:56;99250.38;;;12.34;100.00
29839;BME280;18669;53.356;-1.464;2023-09-19T00:50:43;99235.88;;;12.43;100.00
29839;BME280;18669;53.356;-1.464;2023-09-19T00:53:30;99238.34;;;12.46;100.00
29839;BME280;18669;53.356;-1.464;2023-09-19T00:56:15;99238.75;;;12.38;100.00
29839;BME280;18669;53.356;-1.464;2023-09-19T00:59:03;99260.78;;;12.37;100.00
29839;BME280;18669;53.356;-1.464;2023-09-19T01:01:48;99275.69;;;12.38;100.00
29839;BME280;18669;53.356;-1.464;2023-09-19T01:04:37;99268.44;;;12.42;100.00
29839;BME280;18669;53.356;-1.464;2023-09-19T01:07:23;99274.66;;;12.41;100.00
29839;BME280;18669;53.356;-1.464;2023-09-19T01:10:09;99271.66;;;12.48;100.00
29839;BME280;18669;53.356;-1.464;2023-09-19T01:13:17;99267.44;;;12.62;100.00
29839;BME280;18669;53.356;-1.464;2023-09-19T01:16:11;99263.50;;;12.53;100.00
29839;BME280;18669;53.356;-1.464;2023-09-19T01:22:13;99261.59;;;12.73;100.00
29839;BME280;18669;53.356;-1.464;2023-09-19T01:31:09;99260.00;;;12.70;100.00
29839;BME280;18669;53.356;-1.464;2023-09-19T01:34:01;99260.47;;;12.78;100.00
29839;BME280;18669;53.356;-1.464;2023-09-19T01:36:46;99275.16;;;12.66;100.00
29839;BME280;18669;53.356;-1.464;2023-09-19T01:39:31;99263.09;;;12.61;100.00
29839;BME280;18669;53.356;-1.464;2023-09-19T01:42:58;99264.72;;;12.81;100.00
29839;BME280;18669;53.356;-1.464;2023-09-19T01:46:09;99263.72;;;12.83;100.00
29839;BME280;18669;53.356;-1.464;2023-09-19T01:52:10;99261.22;;;12.80;100.00
29839;BME280;18669;53.356;-1.464;2023-09-19T01:55:05;99258.75;;;12.77;100.00
29839;BME280;18669;53.356;-1.464;2023-09-19T01:58:01;99270.09;;;12.79;100.00
29839;BME280;18669;53.356;-1.464;2023-09-19T02:00:48;99265.88;;;12.75;100.00
29839;BME280;18669;53.356;-1.464;2023-09-19T02:03:38;99268.44;;;12.77;100.00
29839;BME280;18669;53.356;-1.464;2023-09-19T02:06:24;99277.53;;;12.71;100.00
29839;BME280;18669;53.356;-1.464;2023-09-19T02:09:11;99266.81;;;12.74;100.00
29839;BME280;18669;53.356;-1.464;2023-09-19T02:11:56;99259.75;;;12.75;100.00
29839;BME280;18669;53.356;-1.464;2023-09-19T02:14:41;99254.31;;;12.78;100.00
29839;BME280;18669;53.356;-1.464;2023-09-19T02:17:26;99253.53;;;12.76;100.00
29839;BME280;18669;53.356;-1.464;2023-09-19T02:20:12;99254.94;;;12.83;100.00
29839;BME280;18669;53.356;-1.464;2023-09-19T02:22:57;99255.41;;;12.74;100.00
29839;BME280;18669;53.356;-1.464;2023-09-19T02:25:42;99254.63;;;12.72;100.00
29839;BME280;18669;53.356;-1.464;2023-09-19T02:28:27;99242.47;;;12.69;100.00
29839;BME280;18669;53.356;-1.464;2023-09-19T02:31:16;99238.97;;;12.68;100.00
29839;BME280;18669;53.356;-1.464;2023-09-19T02:34:01;99244.47;;;12.64;100.00
29839;BME280;18669;53.356;-1.464;2023-09-19T02:36:46;99232.16;;;12.64;100.00
29839;BME280;18669;53.356;-1.464;2023-09-19T02:39:32;99234.00;;;12.62;100.00
29839;BME280;18669;53.356;-1.464;2023-09-19T02:42:17;99233.44;;;12.56;100.00
29839;BME280;18669;53.356;-1.464;2023-09-19T02:45:02;99238.81;;;12.54;100.00
29839;BME280;18669;53.356;-1.464;2023-09-19T02:47:48;99224.03;;;12.51;100.00
29839;BME280;18669;53.356;-1.464;2023-09-19T02:50:33;99215.47;;;12.46;100.00
29839;BME280;18669;53.356;-1.464;2023-09-19T02:53:18;99214.91;;;12.39;100.00
29839;BME280;18669;53.356;-1.464;2023-09-19T02:56:03;99212.44;;;12.36;100.00
29839;BME280;18669;53.356;-1.464;2023-09-19T02:58:48;99220.44;;;12.35;100.00
29839;BME280;18669;53.356;-1.464;2023-09-19T03:01:33;99219.91;;;12.28;100.00
29839;BME280;18669;53.356;-1.464;2023-09-19T03:04:18;99220.91;;;12.26;100.00
29839;BME280;18669;53.356;-1.464;2023-09-19T03:07:04;99214.94;;;12.22;100.00
29839;BME280;18669;53.356;-1.464;2023-09-19T03:09:49;99200.66;;;12.08;100.00
29839;BME280;18669;53.356;-1.464;2023-09-19T03:12:35;99207.34;;;12.16;100.00
29839;BME280;18669;53.356;-1.464;2023-09-19T03:15:19;99203.38;;;12.07;100.00
29839;BME280;18669;53.356;-1.464;2023-09-19T03:18:05;99211.34;;;12.05;100.00
29839;BME280;18669;53.356;-1.464;2023-09-19T03:20:54;99214.00;;;12.23;100.00
29839;BME280;18669;53.356;-1.464;2023-09-19T03:23:39;99204.22;;;12.07;100.00
29839;BME280;18669;53.356;-1.464;2023-09-19T03:26:24;99204.16;;;12.09;100.00
29839;BME280;18669;53.356;-1.464;2023-09-19T03:29:11;99194.38;;;12.11;100.00
29839;BME280;18669;53.356;-1.464;2023-09-19T03:31:56;99185.56;;;12.12;100.00
29839;BME280;18669;53.356;-1.464;2023-09-19T03:34:41;99169.81;;;12.11;100.00
29839;BME280;18669;53.356;-1.464;2023-09-19T03:37:27;99163.69;;;12.10;100.00
29839;BME280;18669;53.356;-1.464;2023-09-19T03:40:12;99173.31;;;12.11;100.00
29839;BME280;18669;53.356;-1.464;2023-09-19T03:43:00;99161.97;;;12.27;100.00
29839;BME280;18669;53.356;-1.464;2023-09-19T03:45:45;99149.47;;;12.13;100.00
29839;BME280;18669;53.356;-1.464;2023-09-19T03:48:31;99159.09;;;12.14;100.00
29839;BME280;18669;53.356;-1.464;2023-09-19T03:51:16;99158.31;;;12.12;100.00
29839;BME280;18669;53.356;-1.464;2023-09-19T03:54:01;99147.78;;;12.12;100.00
29839;BME280;18669;53.356;-1.464;2023-09-19T03:56:45;99160.03;;;12.13;100.00
29839;BME280;18669;53.356;-1.464;2023-09-19T03:59:30;99160.97;;;12.12;100.00
29839;BME280;18669;53.356;-1.464;2023-09-19T04:02:16;99157.34;;;12.14;100.00
29839;BME280;18669;53.356;-1.464;2023-09-19T04:05:07;99152.75;;;12.18;100.00
29839;BME280;18669;53.356;-1.464;2023-09-19T04:07:52;99147.47;;;12.18;100.00
29839;BME280;18669;53.356;-1.464;2023-09-19T04:10:38;99135.91;;;12.20;100.00
29839;BME280;18669;53.356;-1.464;2023-09-19T04:13:23;99141.78;;;12.26;100.00
29839;BME280;18669;53.356;-1.464;2023-09-19T04:16:07;99128.53;;;12.27;100.00
29839;BME280;18669;53.356;-1.464;2023-09-19T04:18:52;99140.56;;;12.33;100.00
29839;BME280;18669;53.356;-1.464;2023-09-19T04:21:37;99140.91;;;12.43;100.00
29839;BME280;18669;53.356;-1.464;2023-09-19T04:24:22;99149.28;;;12.51;100.00
29839;BME280;18669;53.356;-1.464;2023-09-19T04:27:07;99143.19;;;12.50;100.00
29839;BME280;18669;53.356;-1.464;2023-09-19T04:29:51;99130.56;;;12.56;100.00
29839;BME280;18669;53.356;-1.464;2023-09-19T04:32:38;99125.84;;;12.62;100.00
29839;BME280;18669;53.356;-1.464;2023-09-19T04:35:25;99118.66;;;12.48;100.00
29839;BME280;18669;53.356;-1.464;2023-09-19T04:38:11;99108.78;;;12.52;100.00
29839;BME280;18669;53.356;-1.464;2023-09-19T04:40:59;99109.59;;;12.70;100.00
29839;BME280;18669;53.356;-1.464;2023-09-19T04:43:44;99084.63;;;12.60;100.00
29839;BME280;18669;53.356;-1.464;2023-09-19T04:46:28;99072.03;;;12.65;100.00
29839;BME280;18669;53.356;-1.464;2023-09-19T04:49:13;99070.19;;;12.67;100.00
29839;BME280;18669;53.356;-1.464;2023-09-19T04:51:58;99065.00;;;12.65;100.00
29839;BME280;18669;53.356;-1.464;2023-09-19T04:54:43;99062.19;;;12.68;100.00
29839;BME280;18669;53.356;-1.464;2023-09-19T04:57:28;99056.97;;;12.67;100.00
29839;BME280;18669;53.356;-1.464;2023-09-19T05:00:14;99047.28;;;12.67;100.00
29839;BME280;18669;53.356;-1.464;2023-09-19T05:03:00;99042.56;;;12.57;100.00
29839;BME280;18669;53.356;-1.464;2023-09-19T05:05:45;99026.25;;;12.50;100.00
29839;BME280;18669;53.356;-1.464;2023-09-19T05:08:30;99014.00;;;12.49;100.00
29839;BME280;18669;53.356;-1.464;2023-09-19T05:11:15;99008.28;;;12.41;100.00
29839;BME280;18669;53.356;-1.464;2023-09-19T05:14:00;98992.97;;;12.31;100.00
29839;BME280;18669;53.356;-1.464;2023-09-19T05:16:48;98986.03;;;12.13;100.00
29839;BME280;18669;53.356;-1.464;2023-09-19T05:19:33;98982.03;;;12.05;100.00
29839;BME280;18669;53.356;-1.464;2023-09-19T05:22:18;98966.59;;;11.98;100.00
29839;BME280;18669;53.356;-1.464;2023-09-19T05:25:03;98959.56;;;11.98;100.00
29839;BME280;18669;53.356;-1.464;2023-09-19T05:27:49;98961.28;;;11.99;100.00
29839;BME280;18669;53.356;-1.464;2023-09-19T05:30:35;98953.03;;;12.05;100.00
29839;BME280;18669;53.356;-1.464;2023-09-19T05:33:20;98934.03;;;11.99;100.00
29839;BME280;18669;53.356;-1.464;2023-09-19T05:36:05;98919.16;;;11.98;100.00
29839;BME280;18669;53.356;-1.464;2023-09-19T05:38:50;98913.13;;;11.96;100.00
29839;BME280;18669;53.356;-1.464;2023-09-19T05:41:37;98909.53;;;11.97;100.00
29839;BME280;18669;53.356;-1.464;2023-09-19T05:44:24;98897.22;;;11.97;100.00
29839;BME280;18669;53.356;-1.464;2023-09-19T05:47:09;98891.88;;;11.99;100.00
29839;BME280;18669;53.356;-1.464;2023-09-19T05:49:54;98876.31;;;11.94;100.00
29839;BME280;18669;53.356;-1.464;2023-09-19T05:52:39;98868.41;;;11.94;100.00
29839;BME280;18669;53.356;-1.464;2023-09-19T05:55:25;98861.50;;;11.91;100.00
29839;BME280;18669;53.356;-1.464;2023-09-19T05:58:10;98845.38;;;11.98;100.00
29839;BME280;18669;53.356;-1.464;2023-09-19T06:00:54;98851.44;;;12.00;100.00
29839;BME280;18669;53.356;-1.464;2023-09-19T06:03:40;98837.59;;;12.12;100.00
29839;BME280;18669;53.356;-1.464;2023-09-19T06:06:26;98835.75;;;12.29;100.00
29839;BME280;18669;53.356;-1.464;2023-09-19T06:09:10;98839.75;;;12.36;100.00
29839;BME280;18669;53.356;-1.464;2023-09-19T06:11:55;98835.50;;;12.49;100.00
29839;BME280;18669;53.356;-1.464;2023-09-19T06:14:40;98836.34;;;12.50;100.00
29839;BME280;18669;53.356;-1.464;2023-09-19T06:17:25;98843.03;;;12.56;100.00
29839;BME280;18669;53.356;-1.464;2023-09-19T06:20:11;98833.94;;;12.61;100.00
29839;BME280;18669;53.356;-1.464;2023-09-19T06:22:59;98829.06;;;12.70;100.00
29839;BME280;18669;53.356;-1.464;2023-09-19T06:25:44;98831.59;;;12.71;100.00
29839;BME280;18669;53.356;-1.464;2023-09-19T06:28:29;98807.03;;;12.71;100.00
29839;BME280;18669;53.356;-1.464;2023-09-19T06:31:13;98806.06;;;12.72;100.00
29839;BME280;18669;53.356;-1.464;2023-09-19T06:33:58;98810.31;;;12.74;100.00
29839;BME280;18669;53.356;-1.464;2023-09-19T06:36:44;98794.31;;;12.77;100.00
29839;BME280;18669;53.356;-1.464;2023-09-19T06:39:30;98802.81;;;12.82;100.00
29839;BME280;18669;53.356;-1.464;2023-09-19T06:42:16;98795.00;;;12.95;100.00
29839;BME280;18669;53.356;-1.464;2023-09-19T06:45:01;98780.28;;;12.91;100.00
29839;BME280;18669;53.356;-1.464;2023-09-19T06:47:47;98772.66;;;13.01;100.00
29839;BME280;18669;53.356;-1.464;2023-09-19T06:50:34;98757.75;;;13.00;100.00
29839;BME280;18669;53.356;-1.464;2023-09-19T06:53:20;98761.06;;;13.04;100.00
29839;BME280;18669;53.356;-1.464;2023-09-19T06:56:07;98744.00;;;13.09;100.00
29839;BME280;18669;53.356;-1.464;2023-09-19T06:58:52;98743.81;;;13.12;100.00
29839;BME280;18669;53.356;-1.464;2023-09-19T07:01:36;98734.09;;;13.13;100.00
29839;BME280;18669;53.356;-1.464;2023-09-19T07:04:22;98717.31;;;13.14;100.00
29839;BME280;18669;53.356;-1.464;2023-09-19T07:07:07;98721.19;;;13.23;100.00
29839;BME280;18669;53.356;-1.464;2023-09-19T07:09:58;98711.25;;;13.26;100.00
29839;BME280;18669;53.356;-1.464;2023-09-19T07:12:42;98708.13;;;13.34;100.00
29839;BME280;18669;53.356;-1.464;2023-09-19T07:15:28;98685.59;;;13.43;100.00
29839;BME280;18669;53.356;-1.464;2023-09-19T07:18:16;98678.91;;;13.52;100.00
29839;BME280;18669;53.356;-1.464;2023-09-19T07:21:01;98685.75;;;13.54;100.00
29839;BME280;18669;53.356;-1.464;2023-09-19T07:23:49;98677.88;;;13.67;100.00
29839;BME280;18669;53.356;-1.464;2023-09-19T07:26:34;98682.03;;;13.71;100.00
29839;BME280;18669;53.356;-1.464;2023-09-19T07:29:18;98674.22;;;13.70;100.00
29839;BME280;18669;53.356;-1.464;2023-09-19T07:32:04;98670.47;;;13.87;100.00
29839;BME280;18669;53.356;-1.464;2023-09-19T07:34:48;98671.50;;;13.84;100.00
29839;BME280;18669;53.356;-1.464;2023-09-19T07:37:33;98658.53;;;13.94;100.00
29839;BME280;18669;53.356;-1.464;2023-09-19T07:40:19;98667.00;;;13.99;100.00
29839;BME280;18669;53.356;-1.464;2023-09-19T07:43:05;98670.50;;;14.00;100.00
29839;BME280;18669;53.356;-1.464;2023-09-19T07:45:51;98655.81;;;14.09;100.00
29839;BME280;18669;53.356;-1.464;2023-09-19T07:48:36;98638.78;;;14.13;100.00
29839;BME280;18669;53.356;-1.464;2023-09-19T07:51:22;98637.72;;;14.15;100.00
29839;BME280;18669;53.356;-1.464;2023-09-19T07:54:07;98620.94;;;14.29;100.00
29839;BME280;18669;53.356;-1.464;2023-09-19T07:56:52;98620.63;;;14.34;100.00
29839;BME280;18669;53.356;-1.464;2023-09-19T07:59:38;98607.28;;;14.36;100.00
29839;BME280;18669;53.356;-1.464;2023-09-19T08:02:23;98604.41;;;14.39;100.00
29839;BME280;18669;53.356;-1.464;2023-09-19T08:05:09;98621.97;;;14.53;100.00
29839;BME280;18669;53.356;-1.464;2023-09-19T08:07:54;98586.84;;;14.51;100.00
29839;BME280;18669;53.356;-1.464;2023-09-19T08:10:41;98579.13;;;14.60;100.00
29839;BME280;18669;53.356;-1.464;2023-09-19T08:13:27;98599.88;;;14.80;100.00
29839;BME280;18669;53.356;-1.464;2023-09-19T08:16:13;98597.97;;;14.69;100.00
29839;BME280;18669;53.356;-1.464;2023-09-19T08:18:59;98586.41;;;14.57;100.00
29839;BME280;18669;53.356;-1.464;2023-09-19T08:21:46;98582.81;;;14.71;100.00
29839;BME280;18669;53.356;-1.464;2023-09-19T08:24:31;98590.94;;;14.68;100.00
29839;BME280;18669;53.356;-1.464;2023-09-19T08:27:17;98587.69;;;14.64;100.00
29839;BME280;18669;53.356;-1.464;2023-09-19T08:30:04;98594.47;;;14.68;100.00
29839;BME280;18669;53.356;-1.464;2023-09-19T08:32:50;98603.56;;;14.77;100.00
29839;BME280;18669;53.356;-1.464;2023-09-19T08:35:35;98595.59;;;14.90;100.00
29839;BME280;18669;53.356;-1.464;2023-09-19T08:38:20;98600.66;;;15.06;100.00
29839;BME280;18669;53.356;-1.464;2023-09-19T08:41:06;98612.66;;;15.23;100.00
29839;BME280;18669;53.356;-1.464;2023-09-19T08:43:52;98600.66;;;15.30;100.00
29839;BME280;18669;53.356;-1.464;2023-09-19T08:46:41;98626.56;;;15.51;100.00
29839;BME280;18669;53.356;-1.464;2023-09-19T08:49:39;98595.38;;;15.55;100.00
29839;BME280;18669;53.356;-1.464;2023-09-19T08:52:32;98611.66;;;15.37;100.00
29839;BME280;18669;53.356;-1.464;2023-09-19T08:55:28;98619.28;;;15.42;100.00
29839;BME280;18669;53.356;-1.464;2023-09-19T08:58:14;98615.56;;;15.44;100.00
29839;BME280;18669;53.356;-1.464;2023-09-19T09:01:04;98607.22;;;15.62;100.00
29839;BME280;18669;53.356;-1.464;2023-09-19T09:03:52;98618.78;;;15.61;100.00
29839;BME280;18669;53.356;-1.464;2023-09-19T09:06:38;98633.56;;;15.52;100.00
29839;BME280;18669;53.356;-1.464;2023-09-19T09:09:24;98628.72;;;15.46;100.00
29839;BME280;18669;53.356;-1.464;2023-09-19T09:12:11;98634.25;;;15.67;100.00
29839;BME280;18669;53.356;-1.464;2023-09-19T09:14:57;98623.22;;;15.60;100.00
29839;BME280;18669;53.356;-1.464;2023-09-19T09:17:42;98629.94;;;15.77;100.00
29839;BME280;18669;53.356;-1.464;2023-09-19T09:20:28;98609.88;;;15.86;100.00
29839;BME280;18669;53.356;-1.464;2023-09-19T09:23:12;98609.41;;;15.92;100.00
29839;BME280;18669;53.356;-1.464;2023-09-19T09:25:59;98618.16;;;16.17;100.00
29839;BME280;18669;53.356;-1.464;2023-09-19T09:28:47;98604.66;;;16.20;100.00
29839;BME280;18669;53.356;-1.464;2023-09-19T09:31:33;98611.53;;;16.23;100.00
29839;BME280;18669;53.356;-1.464;2023-09-19T09:34:18;98592.13;;;16.34;100.00
29839;BME280;18669;53.356;-1.464;2023-09-19T09:37:05;98598.28;;;16.46;100.00
29839;BME280;18669;53.356;-1.464;2023-09-19T09:39:57;98598.19;;;16.47;100.00
29839;BME280;18669;53.356;-1.464;2023-09-19T09:42:43;98595.16;;;16.52;100.00
29839;BME280;18669;53.356;-1.464;2023-09-19T09:45:31;98596.50;;;16.58;100.00
29839;BME280;18669;53.356;-1.464;2023-09-19T09:48:24;98598.41;;;16.67;100.00
29839;BME280;18669;53.356;-1.464;2023-09-19T09:51:31;98598.31;;;16.68;100.00
29839;BME280;18669;53.356;-1.464;2023-09-19T09:54:17;98602.41;;;16.73;100.00
29839;BME280;18669;53.356;-1.464;2023-09-19T09:57:07;98587.56;;;16.81;100.00
29839;BME280;18669;53.356;-1.464;2023-09-19T10:00:00;98582.50;;;16.78;100.00
29839;BME280;18669;53.356;-1.464;2023-09-19T10:03:01;98612.81;;;16.76;100.00
29839;BME280;18669;53.356;-1.464;2023-09-19T10:05:53;98592.88;;;16.93;100.00
29839;BME280;18669;53.356;-1.464;2023-09-19T10:08:40;98601.91;;;16.90;100.00
29839;BME280;18669;53.356;-1.464;2023-09-19T10:11:27;98591.91;;;16.94;100.00
29839;BME280;18669;53.356;-1.464;2023-09-19T10:14:16;98589.72;;;17.10;100.00
29839;BME280;18669;53.356;-1.464;2023-09-19T10:17:01;98590.44;;;17.12;100.00
29839;BME280;18669;53.356;-1.464;2023-09-19T10:19:56;98587.00;;;17.33;100.00
29839;BME280;18669;53.356;-1.464;2023-09-19T10:22:45;98583.13;;;17.37;100.00
29839;BME280;18669;53.356;-1.464;2023-09-19T10:25:43;98597.44;;;17.57;100.00
29839;BME280;18669;53.356;-1.464;2023-09-19T10:28:28;98601.53;;;17.62;100.00
29839;BME280;18669;53.356;-1.464;2023-09-19T10:31:19;98602.28;;;17.85;100.00
29839;BME280;18669;53.356;-1.464;2023-09-19T10:34:05;98590.88;;;17.94;100.00
29839;BME280;18669;53.356;-1.464;2023-09-19T10:36:53;98586.69;;;18.13;100.00
29839;BME280;18669;53.356;-1.464;2023-09-19T10:39:46;98597.72;;;18.29;100.00
29839;BME280;18669;53.356;-1.464;2023-09-19T10:42:33;98585.91;;;18.22;100.00
29839;BME280;18669;53.356;-1.464;2023-09-19T10:45:21;98591.69;;;18.27;100.00
29839;BME280;18669;53.356;-1.464;2023-09-19T10:48:07;98587.34;;;18.26;100.00
29839;BME280;18669;53.356;-1.464;2023-09-19T10:51:10;98585.28;;;18.40;100.00
29839;BME280;18669;53.356;-1.464;2023-09-19T10:54:07;98590.19;;;18.66;100.00
29839;BME280;18669;53.356;-1.464;2023-09-19T10:56:56;98584.88;;;18.75;100.00
29839;BME280;18669;53.356;-1.464;2023-09-19T11:00:02;98588.81;;;19.12;100.00
29839;BME280;18669;53.356;-1.464;2023-09-19T11:06:05;98590.00;;;19.68;100.00
29839;BME280;18669;53.356;-1.464;2023-09-19T11:09:04;98592.09;;;19.85;100.00
29839;BME280;18669;53.356;-1.464;2023-09-19T11:12:06;98598.56;;;20.02;100.00
29839;BME280;18669;53.356;-1.464;2023-09-19T11:14:51;98598.84;;;19.98;100.00
29839;BME280;18669;53.356;-1.464;2023-09-19T11:17:43;98600.13;;;20.04;100.00
29839;BME280;18669;53.356;-1.464;2023-09-19T11:20:31;98609.97;;;19.94;100.00
29839;BME280;18669;53.356;-1.464;2023-09-19T11:23:26;98614.00;;;19.78;100.00
29839;BME280;18669;53.356;-1.464;2023-09-19T11:26:40;98607.56;;;19.91;100.00
29839;BME280;18669;53.356;-1.464;2023-09-19T11:29:29;98601.78;;;19.76;100.00
29839;BME280;18669;53.356;-1.464;2023-09-19T11:32:15;98610.34;;;19.60;100.00
29839;BME280;18669;53.356;-1.464;2023-09-19T11:35:06;98615.84;;;19.68;100.00
29839;BME280;18669;53.356;-1.464;2023-09-19T11:40:37;98616.22;;;19.44;100.00
29839;BME280;18669;53.356;-1.464;2023-09-19T11:43:29;98618.22;;;19.71;100.00
29839;BME280;18669;53.356;-1.464;2023-09-19T11:46:16;98613.06;;;19.89;100.00
29839;BME280;18669;53.356;-1.464;2023-09-19T11:49:07;98628.94;;;20.10;100.00
29839;BME280;18669;53.356;-1.464;2023-09-19T11:51:59;98632.56;;;20.19;100.00
29839;BME280;18669;53.356;-1.464;2023-09-19T11:54:45;98628.38;;;19.97;100.00
29839;BME280;18669;53.356;-1.464;2023-09-19T11:57:36;98617.25;;;19.82;100.00
29839;BME280;18669;53.356;-1.464;2023-09-19T12:00:22;98632.97;;;19.85;100.00
29839;BME280;18669;53.356;-1.464;2023-09-19T12:03:09;98622.16;;;19.96;100.00
29839;BME280;18669;53.356;-1.464;2023-09-19T12:05:54;98641.38;;;19.71;100.00
29839;BME280;18669;53.356;-1.464;2023-09-19T12:08:39;98641.94;;;19.64;100.00
29839;BME280;18669;53.356;-1.464;2023-09-19T12:11:29;98652.91;;;19.71;100.00
29839;BME280;18669;53.356;-1.464;2023-09-19T12:14:24;98643.19;;;19.60;100.00
29839;BME280;18669;53.356;-1.464;2023-09-19T12:17:10;98646.41;;;19.44;100.00
29839;BME280;18669;53.356;-1.464;2023-09-19T12:19:57;98654.69;;;19.41;100.00
29839;BME280;18669;53.356;-1.464;2023-09-19T12:22:44;98656.34;;;19.32;100.00
29839;BME280;18669;53.356;-1.464;2023-09-19T12:25:41;98652.69;;;19.23;100.00
29839;BME280;18669;53.356;-1.464;2023-09-19T12:28:31;98651.69;;;19.15;100.00
29839;BME280;18669;53.356;-1.464;2023-09-19T12:31:20;98646.91;;;19.18;100.00
29839;BME280;18669;53.356;-1.464;2023-09-19T12:34:05;98649.41;;;19.10;100.00
29839;BME280;18669;53.356;-1.464;2023-09-19T12:39:49;98658.63;;;19.57;100.00
29839;BME280;18669;53.356;-1.464;2023-09-19T12:42:35;98659.94;;;19.72;100.00
29839;BME280;18669;53.356;-1.464;2023-09-19T12:45:21;98659.94;;;19.72;100.00
29839;BME280;18669;53.356;-1.464;2023-09-19T12:48:25;98667.53;;;19.96;100.00
29839;BME280;18669;53.356;-1.464;2023-09-19T12:51:18;98680.84;;;19.67;100.00
29839;BME280;18669;53.356;-1.464;2023-09-19T12:54:07;98671.16;;;19.66;100.00
29839;BME280;18669;53.356;-1.464;2023-09-19T12:56:52;98678.88;;;19.79;100.00
29839;BME280;18669;53.356;-1.464;2023-09-19T12:59:38;98672.69;;;19.78;100.00
29839;BME280;18669;53.356;-1.464;2023-09-19T13:02:24;98662.19;;;19.87;100.00
29839;BME280;18669;53.356;-1.464;2023-09-19T13:05:10;98656.31;;;19.93;100.00
29839;BME280;18669;53.356;-1.464;2023-09-19T13:07:55;98662.91;;;19.98;100.00
29839;BME280;18669;53.356;-1.464;2023-09-19T13:10:59;98657.47;;;20.67;100.00
29839;BME280;18669;53.356;-1.464;2023-09-19T13:13:50;98647.63;;;20.78;100.00
29839;BME280;18669;53.356;-1.464;2023-09-19T13:17:00;98645.16;;;20.94;100.00
29839;BME280;18669;53.356;-1.464;2023-09-19T13:20:00;98651.19;;;20.59;100.00
29839;BME280;18669;53.356;-1.464;2023-09-19T13:22:47;98655.56;;;20.40;100.00
29839;BME280;18669;53.356;-1.464;2023-09-19T13:25:39;98657.13;;;20.33;100.00
29839;BME280;18669;53.356;-1.464;2023-09-19T13:28:24;98655.94;;;20.55;100.00
29839;BME280;18669;53.356;-1.464;2023-09-19T13:31:10;98647.78;;;20.66;100.00
29839;BME280;18669;53.356;-1.464;2023-09-19T13:33:56;98657.72;;;20.74;100.00
29839;BME280;18669;53.356;-1.464;2023-09-19T13:36:41;98653.88;;;20.96;100.00
29839;BME280;18669;53.356;-1.464;2023-09-19T13:39:26;98658.19;;;21.07;100.00
29839;BME280;18669;53.356;-1.464;2023-09-19T13:42:11;98653.19;;;21.22;100.00
29839;BME280;18669;53.356;-1.464;2023-09-19T13:44:56;98657.84;;;21.20;100.00
29839;BME280;18669;53.356;-1.464;2023-09-19T13:47:41;98658.41;;;20.96;100.00
29839;BME280;18669;53.356;-1.464;2023-09-19T13:50:26;98656.50;;;21.06;100.00
29839;BME280;18669;53.356;-1.464;2023-09-19T13:53:13;98649.81;;;21.20;100.00
29839;BME280;18669;53.356;-1.464;2023-09-19T13:55:58;98669.63;;;21.27;100.00
29839;BME280;18669;53.356;-1.464;2023-09-19T13:58:43;98661.53;;;21.19;100.00
29839;BME280;18669;53.356;-1.464;2023-09-19T14:01:28;98656.31;;;20.90;100.00
29839;BME280;18669;53.356;-1.464;2023-09-19T14:04:13;98668.94;;;20.97;100.00
29839;BME280;18669;53.356;-1.464;2023-09-19T14:07:00;98663.28;;;21.00;100.00
29839;BME280;18669;53.356;-1.464;2023-09-19T14:09:45;98678.78;;;20.97;100.00
29839;BME280;18669;53.356;-1.464;2023-09-19T14:12:30;98696.72;;;20.77;100.00
29839;BME280;18669;53.356;-1.464;2023-09-19T14:15:15;98688.25;;;20.71;100.00
29839;BME280;18669;53.356;-1.464;2023-09-19T14:18:00;98702.78;;;20.49;100.00
29839;BME280;18669;53.356;-1.464;2023-09-19T14:20:45;98697.88;;;20.45;100.00
29839;BME280;18669;53.356;-1.464;2023-09-19T14:23:37;98686.50;;;20.33;100.00
29839;BME280;18669;53.356;-1.464;2023-09-19T14:26:21;98699.56;;;20.26;100.00
29839;BME280;18669;53.356;-1.464;2023-09-19T14:29:07;98712.22;;;20.34;100.00
29839;BME280;18669;53.356;-1.464;2023-09-19T14:31:52;98703.38;;;20.33;100.00
29839;BME280;18669;53.356;-1.464;2023-09-19T14:34:37;98703.19;;;20.54;100.00
29839;BME280;18669;53.356;-1.464;2023-09-19T14:37:26;98721.63;;;20.57;100.00
29839;BME280;18669;53.356;-1.464;2023-09-19T14:40:12;98718.56;;;20.42;100.00
29839;BME280;18669;53.356;-1.464;2023-09-19T14:43:00;98736.81;;;20.37;100.00
29839;BME280;18669;53.356;-1.464;2023-09-19T14:45:45;98715.44;;;20.18;100.00